createdAt,value
2019-06-08T00:00:20.853Z,35.52
2019-06-08T00:02:55.117Z,35.25
2019-06-08T00:05:30.077Z,37.30
2019-06-08T00:08:04.168Z,36.13
2019-06-08T00:10:38.252Z,35.73
2019-06-08T00:13:13.143Z,34.73
2019-06-08T00:15:47.349Z,37.73
2019-06-08T00:18:21.672Z,33.80
2019-06-08T00:20:55.514Z,35.13
2019-06-08T00:23:29.763Z,36.08
2019-06-08T00:26:02.627Z,34.53
2019-06-08T00:28:36.855Z,36.73
2019-06-08T00:31:10.645Z,35.58
2019-06-08T00:33:44.910Z,35.15
2019-06-08T00:36:18.792Z,41.73
2019-06-08T00:38:52.829Z,38.17
2019-06-08T00:41:26.895Z,35.60
2019-06-08T00:44:01.813Z,35.58
2019-06-08T00:46:35.553Z,39.63
2019-06-08T00:49:09.775Z,40.08
2019-06-08T00:51:44.397Z,38.13
2019-06-08T00:54:19.331Z,45.40
2019-06-08T00:56:52.709Z,39.18
2019-06-08T00:59:27.785Z,39.73
2019-06-08T01:02:01.329Z,36.58
2019-06-08T01:04:35.560Z,37.73
2019-06-08T01:07:10.423Z,37.23
2019-06-08T01:09:44.039Z,42.58
2019-06-08T01:12:18.683Z,39.27
2019-06-08T01:14:53.160Z,39.90
2019-06-08T01:17:27.629Z,36.58
2019-06-08T01:20:02.186Z,35.23
2019-06-08T01:22:35.982Z,36.65
2019-06-08T01:25:09.511Z,38.55
2019-06-08T01:27:43.733Z,36.28
2019-06-08T01:30:18.460Z,33.60
2019-06-08T01:32:52.661Z,33.38
2019-06-08T01:35:26.995Z,35.70
2019-06-08T01:38:00.320Z,38.08
2019-06-08T01:40:34.380Z,35.33
2019-06-08T01:43:08.784Z,37.53
2019-06-08T01:45:43.075Z,34.78
2019-06-08T01:48:20.349Z,35.43
2019-06-08T01:50:52.987Z,36.60
2019-06-08T01:53:26.898Z,36.58
2019-06-08T01:56:01.260Z,35.15
2019-06-08T01:58:36.374Z,36.42
2019-06-08T02:01:09.903Z,33.20
2019-06-08T02:03:44.170Z,37.05
2019-06-08T02:06:18.494Z,36.48
2019-06-08T02:08:53.283Z,32.65
2019-06-08T02:11:28.713Z,35.28
2019-06-08T02:14:03.218Z,36.80
2019-06-08T02:16:38.742Z,36.38
2019-06-08T02:19:12.563Z,33.92
2019-06-08T02:21:46.670Z,37.17
2019-06-08T02:24:20.444Z,40.12
2019-06-08T02:26:54.715Z,39.80
2019-06-08T02:29:29.430Z,36.75
2019-06-08T02:32:03.857Z,36.13
2019-06-08T02:34:38.305Z,38.02
2019-06-08T02:37:13.022Z,36.42
2019-06-08T02:39:46.911Z,35.30
2019-06-08T02:42:20.611Z,36.73
2019-06-08T02:44:54.420Z,37.55
2019-06-08T02:47:28.405Z,36.50
2019-06-08T02:50:03.060Z,34.67
2019-06-08T02:52:40.598Z,35.05
2019-06-08T02:55:13.327Z,32.40
2019-06-08T02:57:47.773Z,35.38
2019-06-08T03:00:22.172Z,39.33
2019-06-08T03:02:57.715Z,40.63
2019-06-08T03:05:32.529Z,37.90
2019-06-08T03:08:09.526Z,34.63
2019-06-08T03:10:42.625Z,39.50
2019-06-08T03:13:16.967Z,38.98
2019-06-08T03:15:51.570Z,39.25
2019-06-08T03:18:25.274Z,37.33
2019-06-08T03:20:59.482Z,40.17
2019-06-08T03:23:34.205Z,37.40
2019-06-08T03:26:08.544Z,39.75
2019-06-08T03:28:44.085Z,37.65
2019-06-08T03:31:17.382Z,42.05
2019-06-08T03:33:55.700Z,44.67
2019-06-08T03:36:28.072Z,41.73
2019-06-08T03:39:01.860Z,38.13
2019-06-08T03:41:38.489Z,41.88
2019-06-08T03:44:12.867Z,39.88
2019-06-08T03:46:46.191Z,40.33
2019-06-08T03:49:37.163Z,39.45
2019-06-08T03:51:56.452Z,40.23
2019-06-08T03:54:29.876Z,41.53
2019-06-08T03:57:03.213Z,44.15
2019-06-08T03:59:38.545Z,41.10
2019-06-08T04:02:12.888Z,40.90
2019-06-08T04:04:47.100Z,44.73
2019-06-08T04:07:20.705Z,43.17
2019-06-08T04:09:54.929Z,40.52
2019-06-08T04:12:29.164Z,43.05
2019-06-08T04:15:03.395Z,41.02
2019-06-08T04:17:39.696Z,39.67
2019-06-08T04:20:14.281Z,40.17
2019-06-08T04:22:50.452Z,37.98
2019-06-08T04:25:25.515Z,39.55
2019-06-08T04:28:01.079Z,43.78
2019-06-08T04:30:35.189Z,48.02
2019-06-08T04:33:08.914Z,44.73
2019-06-08T04:35:42.778Z,43.13
2019-06-08T04:38:17.559Z,43.28
2019-06-08T04:40:51.647Z,46.95
2019-06-08T04:43:25.540Z,45.60
2019-06-08T04:45:59.687Z,43.65
2019-06-08T04:48:34.485Z,47.43
2019-06-08T04:51:08.730Z,42.10
2019-06-08T04:53:45.109Z,46.63
2019-06-08T04:56:18.771Z,42.10
2019-06-08T04:58:53.016Z,47.00
2019-06-08T05:01:27.695Z,45.10
2019-06-08T05:04:01.835Z,47.08
2019-06-08T05:06:36.065Z,51.80
2019-06-08T05:09:10.327Z,50.63
2019-06-08T05:11:45.256Z,46.65
2019-06-08T05:14:19.879Z,48.48
2019-06-08T05:16:53.940Z,44.00
2019-06-08T05:19:28.205Z,42.10
2019-06-08T05:22:02.403Z,43.35
2019-06-08T05:24:36.606Z,39.05
2019-06-08T05:27:10.001Z,44.25
2019-06-08T05:29:43.269Z,39.67
2019-06-08T05:32:17.826Z,41.75
2019-06-08T05:34:52.036Z,39.73
2019-06-08T05:37:25.744Z,39.83
2019-06-08T05:40:00.321Z,36.42
2019-06-08T05:42:34.595Z,36.68
2019-06-08T05:45:08.292Z,37.53
2019-06-08T05:47:43.863Z,38.85
2019-06-08T05:50:18.468Z,39.03
2019-06-08T05:52:53.204Z,34.40
2019-06-08T05:55:27.101Z,36.50
2019-06-08T05:57:59.588Z,34.15
2019-06-08T06:00:32.039Z,35.35
2019-06-08T06:03:05.333Z,32.60
2019-06-08T06:05:38.321Z,34.33
2019-06-08T06:08:19.033Z,33.53
2019-06-08T06:10:44.843Z,29.25
2019-06-08T06:13:18.300Z,31.50
2019-06-08T06:15:51.703Z,31.70
2019-06-08T06:18:24.980Z,29.30
2019-06-08T06:21:10.466Z,27.55
2019-06-08T06:23:33.306Z,24.55
2019-06-08T06:26:06.637Z,29.12
2019-06-08T06:28:39.610Z,25.60
2019-06-08T06:31:12.944Z,27.13
2019-06-08T06:33:45.987Z,24.20
2019-06-08T06:36:19.793Z,25.50
2019-06-08T06:38:53.438Z,23.22
2019-06-08T06:41:25.832Z,21.02
2019-06-08T06:43:57.879Z,20.75
2019-06-08T06:46:32.826Z,21.50
2019-06-08T06:49:04.607Z,22.30
2019-06-08T06:51:38.066Z,19.00
2019-06-08T06:54:10.410Z,23.92
2019-06-08T06:56:45.251Z,34.98
2019-06-08T06:59:18.311Z,24.85
2019-06-08T07:01:55.256Z,24.70
2019-06-08T07:04:25.487Z,25.30
2019-06-08T07:06:58.434Z,24.47
2019-06-08T07:09:30.465Z,22.42
2019-06-08T07:12:04.813Z,24.77
2019-06-08T07:14:38.279Z,22.55
2019-06-08T07:17:11.530Z,23.70
2019-06-08T07:19:44.548Z,27.25
2019-06-08T07:22:17.478Z,27.60
2019-06-08T07:24:50.299Z,28.42
2019-06-08T07:27:22.785Z,26.87
2019-06-08T07:29:54.923Z,31.75
2019-06-08T07:32:28.036Z,29.95
2019-06-08T07:35:01.811Z,32.33
2019-06-08T07:37:35.352Z,30.75
2019-06-08T07:40:09.499Z,35.00
2019-06-08T07:42:41.871Z,37.17
2019-06-08T07:45:15.414Z,31.70
2019-06-08T07:47:49.926Z,34.73
2019-06-08T07:50:22.713Z,32.05
2019-06-08T07:52:56.662Z,36.83
2019-06-08T07:55:31.976Z,31.62
2019-06-08T07:58:06.184Z,32.00
2019-06-08T08:00:40.580Z,33.20
2019-06-08T08:03:14.385Z,30.62
2019-06-08T08:05:50.285Z,35.68
2019-06-08T08:08:24.077Z,33.38
2019-06-08T08:10:58.704Z,35.52
2019-06-08T08:13:31.411Z,41.13
2019-06-08T08:16:03.368Z,45.90
2019-06-08T08:18:37.100Z,35.58
2019-06-08T08:21:21.336Z,35.20
2019-06-08T08:23:47.882Z,37.40
2019-06-08T08:26:21.277Z,36.35
2019-06-08T08:28:59.704Z,33.65
2019-06-08T08:31:31.502Z,34.00
2019-06-08T08:34:06.752Z,31.35
2019-06-08T08:36:41.772Z,28.87
2019-06-08T08:39:17.678Z,34.33
2019-06-08T08:41:56.290Z,30.17
2019-06-08T08:44:28.346Z,30.60
2019-06-08T08:47:02.966Z,29.07
2019-06-08T08:49:38.089Z,29.92
2019-06-08T08:52:12.458Z,28.60
2019-06-08T08:54:47.553Z,27.85
2019-06-08T08:57:21.963Z,30.60
2019-06-08T09:00:00.494Z,27.15
2019-06-08T09:02:31.710Z,31.75
2019-06-08T09:05:05.482Z,28.57
2019-06-08T09:07:39.849Z,30.68
2019-06-08T09:10:14.744Z,29.48
2019-06-08T09:12:52.087Z,26.02
2019-06-08T09:15:25.600Z,22.98
2019-06-08T09:18:01.873Z,22.15
2019-06-08T09:20:37.902Z,25.85
2019-06-08T09:23:16.218Z,23.25
2019-06-08T09:25:48.361Z,24.75
2019-06-08T09:28:22.684Z,23.07
2019-06-08T09:30:59.010Z,22.40
2019-06-08T09:33:33.026Z,21.23
2019-06-08T09:36:08.416Z,22.58
2019-06-08T09:38:42.876Z,22.25
2019-06-08T09:41:18.641Z,26.35
2019-06-08T09:43:53.852Z,21.05
2019-06-08T09:46:28.750Z,22.55
2019-06-08T09:49:07.580Z,20.65
2019-06-08T09:51:38.348Z,20.97
2019-06-08T09:54:12.780Z,19.90
2019-06-08T09:56:48.325Z,18.57
2019-06-08T09:59:22.145Z,16.15
2019-06-08T10:01:59.436Z,20.27
2019-06-08T10:04:31.656Z,20.65
2019-06-08T10:07:08.579Z,18.20
2019-06-08T10:09:43.427Z,15.70
2019-06-08T10:12:18.325Z,26.00
2019-06-08T10:14:52.400Z,20.10
2019-06-08T10:17:27.892Z,19.15
2019-06-08T10:20:03.293Z,27.65
2019-06-08T10:22:38.456Z,17.73
2019-06-08T10:25:12.915Z,16.80
2019-06-08T10:27:47.484Z,19.42
2019-06-08T10:30:22.398Z,15.80
2019-06-08T10:32:58.526Z,17.52
2019-06-08T10:35:31.668Z,16.10
2019-06-08T10:38:09.160Z,19.82
2019-06-08T10:41:04.878Z,16.48
2019-06-08T10:43:33.365Z,15.68
2019-06-08T10:46:14.703Z,13.00
2019-06-08T10:48:42.880Z,14.23
2019-06-08T10:51:18.198Z,12.90
2019-06-08T10:53:53.191Z,12.55
2019-06-08T10:56:30.862Z,14.45
2019-06-08T10:59:04.875Z,10.68
2019-06-08T11:01:38.819Z,12.40
2019-06-08T11:04:13.002Z,15.28
2019-06-08T11:06:47.939Z,9.93
2019-06-08T11:09:21.860Z,11.57
2019-06-08T11:11:57.976Z,11.10
2019-06-08T11:14:31.031Z,8.35
2019-06-08T11:17:05.041Z,9.08
2019-06-08T11:19:40.348Z,11.43
2019-06-08T11:22:15.185Z,12.93
2019-06-08T11:24:50.245Z,9.30
2019-06-08T11:27:24.024Z,6.53
2019-06-08T11:29:59.510Z,12.10
2019-06-08T11:32:33.711Z,11.78
2019-06-08T11:35:10.455Z,15.32
2019-06-08T11:37:43.476Z,6.60
2019-06-08T11:40:20.847Z,8.60
2019-06-08T11:42:54.273Z,7.78
2019-06-08T11:45:29.341Z,10.90
2019-06-08T11:48:04.513Z,10.08
2019-06-08T11:50:43.133Z,15.05
2019-06-08T11:53:18.076Z,6.95
2019-06-08T11:55:52.707Z,10.80
2019-06-08T11:58:30.775Z,10.63
2019-06-08T12:01:11.689Z,10.03
2019-06-08T12:03:43.101Z,8.23
2019-06-08T12:06:18.587Z,8.05
2019-06-08T12:08:54.586Z,10.68
2019-06-08T12:11:28.351Z,9.40
2019-06-08T12:14:02.833Z,5.55
2019-06-08T12:16:37.863Z,4.55
2019-06-08T12:19:16.629Z,9.45
2019-06-08T12:21:49.823Z,9.28
2019-06-08T12:24:24.219Z,7.35
2019-06-08T12:27:09.037Z,8.90
2019-06-08T12:29:34.474Z,5.20
2019-06-08T12:32:10.459Z,5.58
2019-06-08T12:34:44.650Z,3.92
2019-06-08T12:37:22.219Z,6.75
2019-06-08T12:39:54.849Z,2.83
2019-06-08T12:42:29.946Z,9.40
2019-06-08T12:45:03.830Z,5.25
2019-06-08T12:47:38.339Z,2.90
2019-06-08T12:50:13.943Z,3.92
2019-06-08T12:52:49.097Z,3.47
2019-06-08T12:55:25.428Z,3.55
2019-06-08T12:57:59.291Z,3.75
2019-06-08T13:00:37.800Z,6.40
2019-06-08T13:03:11.683Z,7.15
2019-06-08T13:05:46.090Z,4.72
2019-06-08T13:08:21.727Z,4.30
2019-06-08T13:10:57.496Z,5.33
2019-06-08T13:13:31.867Z,4.17
2019-06-08T13:16:06.191Z,2.52
2019-06-08T13:18:40.826Z,5.28
2019-06-08T13:21:26.515Z,2.25
2019-06-08T13:23:51.347Z,2.17
2019-06-08T13:26:28.536Z,2.30
2019-06-08T13:29:00.905Z,4.03
2019-06-08T13:31:34.738Z,4.17
2019-06-08T13:34:11.056Z,4.10
2019-06-08T13:36:44.911Z,6.22
2019-06-08T13:39:20.116Z,4.80
2019-06-08T13:41:54.673Z,5.33
2019-06-08T13:44:28.882Z,3.40
2019-06-08T13:47:03.236Z,4.17
2019-06-08T13:49:37.744Z,6.22
2019-06-08T13:52:13.563Z,2.62
2019-06-08T13:54:48.015Z,3.15
2019-06-08T13:57:24.690Z,4.03
2019-06-08T13:59:58.351Z,4.12
2019-06-08T14:02:32.170Z,1.60
2019-06-08T14:05:08.172Z,3.80
2019-06-08T14:07:40.770Z,4.58
2019-06-08T14:10:19.597Z,2.62
2019-06-08T14:12:51.080Z,3.33
2019-06-08T14:15:26.114Z,2.70
2019-06-08T14:18:00.747Z,3.95
2019-06-08T14:20:38.257Z,1.62
2019-06-08T14:23:11.532Z,3.85
2019-06-08T14:25:53.236Z,3.72
2019-06-08T14:28:23.270Z,4.00
2019-06-08T14:30:59.323Z,2.90
2019-06-08T14:33:33.798Z,2.37
2019-06-08T14:36:07.959Z,5.72
2019-06-08T14:38:42.679Z,4.65
2019-06-08T14:41:18.241Z,2.05
2019-06-08T14:43:53.968Z,1.98
2019-06-08T14:46:28.743Z,3.52
2019-06-08T14:49:03.543Z,3.30
2019-06-08T14:51:57.742Z,4.10
2019-06-08T14:54:34.980Z,2.15
2019-06-08T14:57:07.840Z,1.47
2019-06-08T14:59:43.537Z,4.60
2019-06-08T15:02:19.593Z,6.20
2019-06-08T15:04:54.770Z,2.72
2019-06-08T15:07:31.364Z,2.58
2019-06-08T15:10:09.774Z,2.72
2019-06-08T15:12:41.502Z,3.60
2019-06-08T15:15:18.294Z,2.55
2019-06-08T15:17:51.474Z,11.65
2019-06-08T15:20:26.190Z,8.65
2019-06-08T15:23:00.596Z,5.25
2019-06-08T15:25:34.481Z,3.77
2019-06-08T15:28:09.484Z,8.88
2019-06-08T15:30:43.489Z,4.62
2019-06-08T15:33:18.123Z,4.45
2019-06-08T15:35:53.462Z,5.12
2019-06-08T15:38:30.140Z,11.33
2019-06-08T15:41:03.276Z,6.25
2019-06-08T15:43:40.227Z,5.05
2019-06-08T15:46:12.756Z,4.00
2019-06-08T15:48:48.499Z,5.50
2019-06-08T15:51:22.436Z,3.55
2019-06-08T15:53:57.923Z,2.67
2019-06-08T15:56:44.124Z,6.20
2019-06-08T15:59:09.312Z,3.70
2019-06-08T16:01:44.734Z,7.75
2019-06-08T16:04:18.920Z,3.12
2019-06-08T16:06:53.145Z,2.05
2019-06-08T16:09:28.046Z,3.08
2019-06-08T16:12:02.694Z,4.35
2019-06-08T16:14:36.715Z,3.50
2019-06-08T16:17:10.411Z,3.65
2019-06-08T16:19:44.117Z,9.85
2019-06-08T16:22:18.137Z,3.87
2019-06-08T16:24:51.834Z,19.10
2019-06-08T16:27:27.640Z,8.98
2019-06-08T16:30:08.637Z,10.53
2019-06-08T16:32:39.736Z,5.55
2019-06-08T16:35:13.694Z,4.53
2019-06-08T16:37:47.945Z,2.72
2019-06-08T16:40:20.942Z,5.55
2019-06-08T16:42:54.244Z,3.22
2019-06-08T16:45:29.045Z,4.25
2019-06-08T16:48:03.575Z,3.98
2019-06-08T16:50:38.522Z,7.65
2019-06-08T16:53:13.945Z,7.65
2019-06-08T16:55:48.399Z,11.10
2019-06-08T16:58:22.665Z,27.05
2019-06-08T17:00:56.795Z,16.00
2019-06-08T17:03:32.863Z,10.78
2019-06-08T17:06:07.256Z,11.70
2019-06-08T17:08:42.675Z,10.20
2019-06-08T17:11:17.271Z,8.70
2019-06-08T17:13:52.333Z,6.42
2019-06-08T17:16:27.669Z,6.65
2019-06-08T17:19:02.607Z,9.05
2019-06-08T17:21:38.514Z,4.53
2019-06-08T17:24:12.882Z,8.13
2019-06-08T17:26:48.943Z,7.70
2019-06-08T17:29:25.844Z,7.50
2019-06-08T17:32:00.838Z,8.13
2019-06-08T17:34:38.097Z,9.95
2019-06-08T17:37:13.209Z,4.10
2019-06-08T17:39:50.877Z,12.00
2019-06-08T17:42:25.890Z,7.25
2019-06-08T17:45:00.642Z,7.90
2019-06-08T17:47:36.391Z,8.10
2019-06-08T17:50:12.669Z,11.65
2019-06-08T17:52:48.466Z,24.60
2019-06-08T17:55:23.966Z,20.23
2019-06-08T17:57:58.426Z,15.95
2019-06-08T18:00:35.319Z,10.75
2019-06-08T18:03:10.478Z,6.60
2019-06-08T18:05:48.462Z,5.65
2019-06-08T18:08:25.333Z,6.53
2019-06-08T18:11:00.912Z,6.55
2019-06-08T18:13:39.085Z,9.05
2019-06-08T18:16:12.817Z,5.28
2019-06-08T18:18:48.075Z,10.23
2019-06-08T18:21:22.385Z,7.12
2019-06-08T18:23:57.330Z,6.35
2019-06-08T18:26:32.158Z,4.87
2019-06-08T18:29:07.906Z,6.55
2019-06-08T18:31:43.005Z,7.78
2019-06-08T18:34:17.907Z,7.33
2019-06-08T18:36:52.136Z,8.08
2019-06-08T18:39:27.252Z,6.47
2019-06-08T18:42:01.705Z,8.98
2019-06-08T18:44:35.648Z,6.95
2019-06-08T18:47:10.046Z,7.33
2019-06-08T18:49:46.192Z,8.65
2019-06-08T18:52:21.338Z,5.67
2019-06-08T18:54:57.714Z,6.83
2019-06-08T18:57:31.396Z,8.95
2019-06-08T19:00:09.144Z,7.85
2019-06-08T19:02:44.902Z,4.55
2019-06-08T19:05:21.262Z,4.87
2019-06-08T19:07:57.223Z,6.08
2019-06-08T19:10:39.480Z,4.12
2019-06-08T19:13:14.629Z,6.58
2019-06-08T19:15:52.832Z,6.97
2019-06-08T19:18:24.409Z,6.35
2019-06-08T19:20:59.948Z,5.53
2019-06-08T19:23:34.469Z,7.45
2019-06-08T19:26:08.701Z,8.35
2019-06-08T19:28:47.815Z,5.45
2019-06-08T19:31:19.611Z,7.87
2019-06-08T19:33:54.890Z,9.70
2019-06-08T19:36:28.578Z,6.60
2019-06-08T19:39:03.587Z,7.08
2019-06-08T19:41:39.429Z,10.60
2019-06-08T19:44:18.143Z,9.25
2019-06-08T19:46:53.290Z,10.50
2019-06-08T19:49:28.295Z,7.85
2019-06-08T19:52:02.272Z,7.87
2019-06-08T19:54:41.720Z,10.72
2019-06-08T19:57:17.184Z,13.00
2019-06-08T19:59:50.370Z,8.70
2019-06-08T20:02:26.995Z,8.50
2019-06-08T20:05:00.053Z,12.53
2019-06-08T20:07:37.927Z,11.30
2019-06-08T20:10:14.387Z,13.50
2019-06-08T20:12:50.868Z,10.58
2019-06-08T20:15:26.582Z,9.98
2019-06-08T20:18:00.422Z,59.58
2019-06-08T20:20:34.460Z,78.20
2019-06-08T20:23:09.749Z,17.12
2019-06-08T20:25:45.137Z,14.98
2019-06-08T20:28:20.890Z,57.20
2019-06-08T20:30:57.811Z,30.37
2019-06-08T20:33:30.705Z,17.90
2019-06-08T20:36:08.068Z,13.98
2019-06-08T20:38:44.001Z,11.38
2019-06-08T20:41:18.580Z,16.37
2019-06-08T20:43:53.655Z,15.08
2019-06-08T20:46:30.696Z,16.32
2019-06-08T20:49:04.465Z,16.40
2019-06-08T20:51:38.831Z,15.65
2019-06-08T20:54:17.112Z,15.28
2019-06-08T20:56:52.037Z,18.23
2019-06-08T20:59:33.221Z,18.55
2019-06-08T21:02:02.766Z,17.45
2019-06-08T21:04:38.363Z,15.60
2019-06-08T21:07:17.381Z,14.28
2019-06-08T21:09:53.496Z,15.40
2019-06-08T21:12:29.023Z,16.20
2019-06-08T21:15:04.265Z,15.53
2019-06-08T21:17:38.908Z,13.70
2019-06-08T21:20:18.313Z,17.82
2019-06-08T21:22:59.507Z,18.42
2019-06-08T21:25:32.315Z,21.12
2019-06-08T21:28:10.233Z,14.43
2019-06-08T21:30:44.337Z,16.93
2019-06-08T21:33:19.105Z,13.98
2019-06-08T21:35:58.336Z,15.38
2019-06-08T21:38:30.691Z,20.57
2019-06-08T21:41:08.080Z,18.98
2019-06-08T21:43:42.858Z,17.37
2019-06-08T21:46:17.177Z,15.60
2019-06-08T21:48:51.951Z,15.78
2019-06-08T21:51:26.790Z,16.65
2019-06-08T21:54:00.898Z,19.45
2019-06-08T21:56:37.065Z,16.55
2019-06-08T21:59:11.793Z,16.87
2019-06-08T22:01:50.414Z,14.30
2019-06-08T22:04:23.450Z,16.30
2019-06-08T22:07:01.058Z,14.25
2019-06-08T22:09:33.826Z,15.58
2019-06-08T22:12:08.091Z,15.80
2019-06-08T22:14:41.832Z,16.90
2019-06-08T22:17:18.826Z,15.15
2019-06-08T22:19:53.117Z,17.82
2019-06-08T22:22:28.528Z,17.17
2019-06-08T22:25:02.124Z,13.83
2019-06-08T22:27:37.959Z,15.10
2019-06-08T22:30:18.476Z,13.15
2019-06-08T22:32:47.556Z,16.40
2019-06-08T22:35:21.814Z,13.18
2019-06-08T22:37:58.095Z,11.53
2019-06-08T22:40:33.122Z,14.13
2019-06-08T22:43:08.076Z,12.60
2019-06-08T22:45:43.356Z,12.90
2019-06-08T22:48:18.780Z,11.48
2019-06-08T22:50:54.879Z,12.25
2019-06-08T22:53:30.086Z,14.70
2019-06-08T22:56:04.505Z,14.20
2019-06-08T22:58:39.605Z,14.43
2019-06-08T23:01:13.892Z,13.50
2019-06-08T23:03:47.919Z,11.93
2019-06-08T23:06:22.316Z,13.72
2019-06-08T23:09:00.759Z,14.13
2019-06-08T23:11:32.485Z,12.63
2019-06-08T23:14:12.772Z,13.72
2019-06-08T23:16:42.397Z,13.78
2019-06-08T23:19:17.414Z,12.10
2019-06-08T23:21:52.157Z,13.70
2019-06-08T23:24:27.564Z,11.73
2019-06-08T23:27:02.184Z,11.80
2019-06-08T23:29:38.146Z,14.30
2019-06-08T23:32:12.481Z,13.03
2019-06-08T23:34:47.796Z,12.20
2019-06-08T23:37:23.617Z,10.55
2019-06-08T23:40:00.503Z,10.08
2019-06-08T23:42:34.729Z,13.05
2019-06-08T23:45:10.714Z,14.55
2019-06-08T23:47:48.034Z,14.23
2019-06-08T23:50:22.743Z,11.15
2019-06-08T23:52:58.141Z,14.30
2019-06-08T23:55:32.939Z,13.38
2019-06-08T23:58:09.523Z,13.68
